createdAt,value
2023-05-02T00:02:03.299Z,13.35
2023-05-02T00:05:07.539Z,13.40
2023-05-02T00:08:09.839Z,13.46
2023-05-02T00:11:12.776Z,13.72
2023-05-02T00:14:15.062Z,13.62
2023-05-02T00:17:18.771Z,13.60
2023-05-02T00:20:21.035Z,13.79
2023-05-02T00:23:24.158Z,13.85
2023-05-02T00:26:27.568Z,13.98
2023-05-02T00:29:30.646Z,13.88
2023-05-02T00:32:33.395Z,14.01
2023-05-02T00:35:35.814Z,13.97
2023-05-02T00:38:38.236Z,13.91
2023-05-02T00:41:40.724Z,13.99
2023-05-02T00:44:43.185Z,14.05
2023-05-02T00:47:45.922Z,14.06
2023-05-02T00:50:48.173Z,14.08
2023-05-02T00:53:51.084Z,14.01
2023-05-02T00:56:53.180Z,13.97
2023-05-02T00:59:57.034Z,14.00
2023-05-02T01:03:09.112Z,13.89
2023-05-02T01:06:16.973Z,13.92
2023-05-02T01:09:55.961Z,13.93
2023-05-02T01:13:16.918Z,13.91
2023-05-02T01:16:20.456Z,13.90
2023-05-02T01:19:26.977Z,13.85
2023-05-02T01:22:32.994Z,13.79
2023-05-02T01:25:44.726Z,13.77
2023-05-02T01:28:58.591Z,13.89
2023-05-02T01:32:03.250Z,13.83
2023-05-02T01:35:06.935Z,13.90
2023-05-02T01:38:10.244Z,13.75
2023-05-02T01:41:13.140Z,13.75
2023-05-02T01:44:17.318Z,13.73
2023-05-02T01:47:19.973Z,13.79
2023-05-02T01:50:24.859Z,13.56
2023-05-02T01:53:28.762Z,13.53
2023-05-02T01:56:32.848Z,13.44
2023-05-02T01:59:35.701Z,13.40
2023-05-02T02:02:41.093Z,13.44
2023-05-02T02:05:44.425Z,13.53
2023-05-02T02:08:46.967Z,13.28
2023-05-02T02:11:52.719Z,13.29
2023-05-02T02:15:09.055Z,13.19
2023-05-02T02:18:13.773Z,13.16
2023-05-02T02:21:18.366Z,12.92
2023-05-02T02:24:21.957Z,12.82
2023-05-02T02:27:24.626Z,13.01
2023-05-02T02:30:26.768Z,12.85
2023-05-02T02:33:30.640Z,12.85
2023-05-02T02:36:40.699Z,12.75
2023-05-02T02:39:54.358Z,12.63
2023-05-02T02:43:12.852Z,12.62
2023-05-02T02:46:18.956Z,12.71
2023-05-02T02:49:31.977Z,12.84
2023-05-02T02:52:37.655Z,12.85
2023-05-02T02:56:12.644Z,12.75
2023-05-02T02:59:28.856Z,12.80
2023-05-02T03:02:32.203Z,12.82
2023-05-02T03:05:35.063Z,12.72
2023-05-02T03:08:41.353Z,12.57
2023-05-02T03:11:46.197Z,12.68
2023-05-02T03:14:48.819Z,12.67
2023-05-02T03:17:52.497Z,12.61
2023-05-02T03:20:54.734Z,12.63
2023-05-02T03:24:01.135Z,12.67
2023-05-02T03:27:04.639Z,12.61
2023-05-02T03:30:08.466Z,12.64
2023-05-02T03:33:11.167Z,12.69
2023-05-02T03:36:14.789Z,12.72
2023-05-02T03:39:17.307Z,12.79
2023-05-02T03:42:21.696Z,12.67
2023-05-02T03:45:23.771Z,12.59
2023-05-02T03:48:28.068Z,12.63
2023-05-02T03:51:32.300Z,12.68
2023-05-02T03:54:38.046Z,12.71
2023-05-02T03:57:40.606Z,12.72
2023-05-02T04:00:44.063Z,12.70
2023-05-02T04:03:47.150Z,12.80
2023-05-02T04:06:50.584Z,13.05
2023-05-02T04:09:53.251Z,13.07
2023-05-02T04:12:55.672Z,13.15
2023-05-02T04:15:59.041Z,13.26
2023-05-02T04:19:03.306Z,13.09
2023-05-02T04:22:06.637Z,13.18
2023-05-02T04:25:12.582Z,13.29
2023-05-02T04:28:15.652Z,13.80
2023-05-02T04:31:19.220Z,15.05
2023-05-02T04:34:22.767Z,16.37
2023-05-02T04:37:25.844Z,16.74
2023-05-02T04:40:29.360Z,17.35
2023-05-02T04:43:33.789Z,17.53
2023-05-02T04:46:36.862Z,17.16
2023-05-02T04:53:11.660Z,17.41
2023-05-02T04:56:14.157Z,18.69
2023-05-02T04:59:17.464Z,19.77
2023-05-02T05:02:20.287Z,20.83
2023-05-02T05:05:23.837Z,21.93
2023-05-02T05:08:30.784Z,22.83
2023-05-02T05:11:34.682Z,22.83
2023-05-02T05:14:37.839Z,23.66
2023-05-02T05:17:43.850Z,23.95
2023-05-02T05:20:48.664Z,24.96
2023-05-02T05:23:52.294Z,24.33
2023-05-02T05:26:58.719Z,25.25
2023-05-02T05:30:02.722Z,24.94
2023-05-02T05:33:05.745Z,25.33
2023-05-02T05:36:09.063Z,25.22
2023-05-02T05:39:11.359Z,24.38
2023-05-02T05:42:16.548Z,24.24
2023-05-02T05:45:21.070Z,24.92
2023-05-02T05:48:23.834Z,25.20
2023-05-02T05:51:27.823Z,25.56
2023-05-02T05:54:32.405Z,26.20
2023-05-02T05:57:35.106Z,26.52
2023-05-02T06:00:38.338Z,27.38
2023-05-02T06:03:41.100Z,26.87
2023-05-02T06:06:43.458Z,27.16
2023-05-02T06:09:46.169Z,26.99
2023-05-02T06:12:49.364Z,27.57
2023-05-02T06:15:52.845Z,27.96
2023-05-02T06:18:55.332Z,28.21
2023-05-02T06:21:57.672Z,28.83
2023-05-02T06:25:00.131Z,28.30
2023-05-02T06:28:02.390Z,28.20
2023-05-02T06:31:06.007Z,27.71
2023-05-02T06:34:08.452Z,27.26
2023-05-02T06:37:10.951Z,28.66
2023-05-02T06:40:13.836Z,28.52
2023-05-02T06:43:16.162Z,28.33
2023-05-02T06:46:20.911Z,28.97
2023-05-02T06:49:23.464Z,28.78
2023-05-02T06:52:25.968Z,29.31
2023-05-02T06:55:28.337Z,30.33
2023-05-02T06:58:30.963Z,29.90
2023-05-02T07:01:33.079Z,29.52
2023-05-02T07:04:35.703Z,29.67
2023-05-02T07:07:37.728Z,30.25
2023-05-02T07:10:39.990Z,30.73
2023-05-02T07:13:41.954Z,31.19
2023-05-02T07:16:44.331Z,30.77
2023-05-02T07:19:46.306Z,29.20
2023-05-02T07:22:48.527Z,28.13
2023-05-02T07:25:50.513Z,28.28
2023-05-02T07:28:52.818Z,28.90
2023-05-02T07:31:54.944Z,28.00
2023-05-02T07:34:57.357Z,27.68
2023-05-02T07:37:59.358Z,28.00
2023-05-02T07:41:01.645Z,28.16
2023-05-02T07:44:03.802Z,28.02
2023-05-02T07:47:06.569Z,28.01
2023-05-02T07:50:09.161Z,27.82
2023-05-02T07:53:11.601Z,27.42
2023-05-02T07:56:13.605Z,26.83
2023-05-02T07:59:16.015Z,26.25
2023-05-02T08:02:20.209Z,25.64
2023-05-02T08:05:22.920Z,25.13
2023-05-02T08:08:25.277Z,24.71
2023-05-02T08:11:27.791Z,24.37
2023-05-02T08:14:30.279Z,24.52
2023-05-02T08:17:32.693Z,24.07
2023-05-02T08:20:35.018Z,23.77
2023-05-02T08:23:40.416Z,23.06
2023-05-02T08:26:42.450Z,23.10
2023-05-02T08:29:44.759Z,23.26
2023-05-02T08:32:47.368Z,23.07
2023-05-02T08:35:49.757Z,23.05
2023-05-02T08:38:51.838Z,23.29
2023-05-02T08:41:54.256Z,23.30
2023-05-02T08:44:57.639Z,23.84
2023-05-02T08:48:00.335Z,24.01
2023-05-02T08:51:02.855Z,23.81
2023-05-02T08:54:07.558Z,23.73
2023-05-02T08:57:10.166Z,23.98
2023-05-02T09:00:12.858Z,24.08
2023-05-02T09:03:17.656Z,23.78
2023-05-02T09:06:23.097Z,23.81
2023-05-02T09:09:27.055Z,23.77
2023-05-02T09:12:32.134Z,23.73
2023-05-02T09:15:34.102Z,23.96
2023-05-02T09:18:46.795Z,24.04
2023-05-02T09:21:48.824Z,24.30
2023-05-02T09:24:54.864Z,24.24
2023-05-02T09:27:56.957Z,24.29
2023-05-02T09:31:09.938Z,24.13
2023-05-02T09:34:13.161Z,24.05
2023-05-02T09:37:33.844Z,24.11
2023-05-02T09:40:37.877Z,23.91
2023-05-02T09:43:40.808Z,23.54
2023-05-02T09:46:43.861Z,23.72
2023-05-02T09:49:46.652Z,23.47
2023-05-02T09:53:09.853Z,23.92
2023-05-02T09:56:14.196Z,23.89
2023-05-02T09:59:19.600Z,24.34
2023-05-02T10:02:22.491Z,24.26
2023-05-02T10:05:25.748Z,23.84
2023-05-02T10:08:28.635Z,23.29
2023-05-02T10:11:32.325Z,23.04
2023-05-02T10:14:39.319Z,23.10
2023-05-02T10:17:46.532Z,23.36
2023-05-02T10:20:55.796Z,23.15
2023-05-02T10:23:59.250Z,23.03
2023-05-02T10:27:03.974Z,22.97
2023-05-02T10:30:07.924Z,23.44
2023-05-02T10:33:10.933Z,23.42
2023-05-02T10:36:13.288Z,23.52
2023-05-02T10:39:15.991Z,23.72
2023-05-02T10:42:20.089Z,23.69
2023-05-02T10:45:32.376Z,23.67
2023-05-02T10:48:34.643Z,23.72
2023-05-02T10:51:38.661Z,23.82
2023-05-02T10:54:42.010Z,23.74
2023-05-02T10:58:10.565Z,23.94
2023-05-02T11:01:26.980Z,23.78
2023-05-02T11:05:08.233Z,23.89
2023-05-02T11:08:21.245Z,24.02
2023-05-02T11:11:42.644Z,23.92
2023-05-02T11:14:47.310Z,23.84
2023-05-02T11:18:09.902Z,23.94
2023-05-02T11:21:28.909Z,23.84
2023-05-02T11:24:40.879Z,24.05
2023-05-02T11:27:45.688Z,24.47
2023-05-02T11:30:48.679Z,24.68
2023-05-02T11:34:01.043Z,24.80
2023-05-02T11:37:10.868Z,24.61
2023-05-02T11:40:13.898Z,24.46
2023-05-02T11:43:16.902Z,24.43
2023-05-02T11:46:21.136Z,24.03
2023-05-02T11:49:23.330Z,23.75
2023-05-02T11:52:26.092Z,23.48
2023-05-02T11:55:28.182Z,23.69
2023-05-02T11:58:32.879Z,24.12
2023-05-02T12:01:35.120Z,24.67
2023-05-02T12:04:42.625Z,24.99
2023-05-02T12:07:46.250Z,24.79
2023-05-02T12:10:49.556Z,24.82
2023-05-02T12:13:51.872Z,24.37
2023-05-02T12:16:55.227Z,24.33
2023-05-02T12:19:57.862Z,24.58
2023-05-02T12:23:00.489Z,25.00
2023-05-02T12:26:16.391Z,25.37
2023-05-02T12:29:18.693Z,25.68
2023-05-02T12:32:28.102Z,25.53
2023-05-02T12:35:31.344Z,25.85
2023-05-02T12:38:33.947Z,25.68
2023-05-02T12:41:37.474Z,25.18
2023-05-02T12:44:40.823Z,24.79
2023-05-02T12:47:46.576Z,24.51
2023-05-02T12:50:49.416Z,24.60
2023-05-02T12:53:52.140Z,24.78
2023-05-02T12:56:54.247Z,24.91
2023-05-02T12:59:56.789Z,24.66
2023-05-02T13:02:59.082Z,24.26
2023-05-02T13:06:01.592Z,24.15
2023-05-02T13:09:04.870Z,23.90
2023-05-02T13:12:07.996Z,23.74
2023-05-02T13:15:10.307Z,23.70
2023-05-02T13:18:12.794Z,23.68
2023-05-02T13:21:14.801Z,23.55
2023-05-02T13:24:17.536Z,23.40
2023-05-02T13:27:19.721Z,23.25
2023-05-02T13:30:22.060Z,23.36
2023-05-02T13:33:24.070Z,23.57
2023-05-02T13:36:26.974Z,23.71
2023-05-02T13:39:28.955Z,23.81
2023-05-02T13:42:31.177Z,23.75
2023-05-02T13:45:33.200Z,23.68
2023-05-02T13:48:37.319Z,23.68
2023-05-02T13:51:39.336Z,23.64
2023-05-02T13:54:41.639Z,23.41
2023-05-02T13:57:43.721Z,23.33
2023-05-02T14:00:47.308Z,23.37
2023-05-02T14:03:49.969Z,23.47
2023-05-02T14:06:52.142Z,23.49
2023-05-02T14:09:54.817Z,23.30
2023-05-02T14:12:56.739Z,23.34
2023-05-02T14:15:59.327Z,23.36
2023-05-02T14:19:01.399Z,23.42
2023-05-02T14:22:05.608Z,23.34
2023-05-02T14:25:08.229Z,23.34
2023-05-02T14:28:10.540Z,23.42
2023-05-02T14:31:12.746Z,23.44
2023-05-02T14:34:15.219Z,23.53
2023-05-02T14:37:17.156Z,23.45
2023-05-02T14:40:19.391Z,23.31
2023-05-02T14:43:21.496Z,22.99
2023-05-02T14:46:23.957Z,23.10
2023-05-02T14:49:26.960Z,22.97
2023-05-02T14:52:29.204Z,22.87
2023-05-02T14:55:35.641Z,22.85
2023-05-02T14:58:38.561Z,22.65
2023-05-02T15:01:40.794Z,22.54
2023-05-02T15:04:43.391Z,22.62
2023-05-02T15:07:45.457Z,22.60
2023-05-02T15:10:47.788Z,22.63
2023-05-02T15:13:49.881Z,22.53
2023-05-02T15:16:52.189Z,22.45
2023-05-02T15:19:55.849Z,22.50
2023-05-02T15:23:03.293Z,22.44
2023-05-02T15:26:05.585Z,22.35
2023-05-02T15:29:07.943Z,22.36
2023-05-02T15:32:10.031Z,22.39
2023-05-02T15:35:12.494Z,22.40
2023-05-02T15:38:14.544Z,22.37
2023-05-02T15:41:16.919Z,22.41
2023-05-02T15:44:19.255Z,22.25
2023-05-02T15:47:22.370Z,22.37
2023-05-02T15:50:25.622Z,22.20
2023-05-02T15:53:28.485Z,22.20
2023-05-02T15:56:32.256Z,22.23
2023-05-02T15:59:34.966Z,22.19
2023-05-02T16:02:38.021Z,22.27
2023-05-02T16:05:40.348Z,22.32
2023-05-02T16:08:42.287Z,22.29
2023-05-02T16:11:44.715Z,22.31
2023-05-02T16:14:46.947Z,22.25
2023-05-02T16:17:49.919Z,22.24
2023-05-02T16:20:52.797Z,22.01
2023-05-02T16:23:55.313Z,22.03
2023-05-02T16:26:57.355Z,22.00
2023-05-02T16:30:00.151Z,21.80
2023-05-02T16:33:03.347Z,21.73
2023-05-02T16:36:06.407Z,21.55
2023-05-02T16:39:08.540Z,21.42
2023-05-02T16:42:10.832Z,21.39
2023-05-02T16:45:12.901Z,21.28
2023-05-02T16:48:15.560Z,21.08
2023-05-02T16:51:17.543Z,20.99
2023-05-02T16:54:19.850Z,20.83
2023-05-02T16:57:22.176Z,20.68
2023-05-02T17:00:24.568Z,20.55
2023-05-02T17:03:26.957Z,20.52
2023-05-02T17:06:29.338Z,20.64
2023-05-02T17:09:31.595Z,20.29
2023-05-02T17:12:33.947Z,20.12
2023-05-02T17:15:38.422Z,19.90
2023-05-02T17:18:40.890Z,19.67
2023-05-02T17:21:42.906Z,19.56
2023-05-02T17:24:48.315Z,19.56
2023-05-02T17:27:50.693Z,19.51
2023-05-02T17:30:54.715Z,19.40
2023-05-02T17:33:56.837Z,19.35
2023-05-02T17:36:59.182Z,19.27
2023-05-02T17:40:02.267Z,19.22
2023-05-02T17:43:05.684Z,19.20
2023-05-02T17:46:09.136Z,19.14
2023-05-02T17:49:11.666Z,19.10
2023-05-02T17:52:13.612Z,19.03
2023-05-02T17:55:18.377Z,19.01
2023-05-02T17:58:21.240Z,18.93
2023-05-02T18:01:23.607Z,18.85
2023-05-02T18:04:26.103Z,18.80
2023-05-02T18:07:29.928Z,18.76
2023-05-02T18:10:35.900Z,18.75
2023-05-02T18:13:39.604Z,18.72
2023-05-02T18:16:46.940Z,18.66
2023-05-02T18:19:50.275Z,18.66
2023-05-02T18:22:52.593Z,18.69
2023-05-02T18:25:55.673Z,18.65
2023-05-02T18:28:57.939Z,18.65
2023-05-02T18:32:00.015Z,18.59
2023-05-02T18:35:04.028Z,18.55
2023-05-02T18:38:06.695Z,18.36
2023-05-02T18:41:09.360Z,18.26
2023-05-02T18:44:12.006Z,18.22
2023-05-02T18:47:16.575Z,18.10
2023-05-02T18:50:18.631Z,18.02
2023-05-02T18:53:22.790Z,18.04
2023-05-02T18:56:25.467Z,17.90
2023-05-02T18:59:27.791Z,17.84
2023-05-02T19:02:29.771Z,17.82
2023-05-02T19:05:34.689Z,17.73
2023-05-02T19:08:36.740Z,17.52
2023-05-02T19:11:39.387Z,17.50
2023-05-02T19:14:42.076Z,17.52
2023-05-02T19:17:44.963Z,17.44
2023-05-02T19:20:46.973Z,17.44
2023-05-02T19:23:49.719Z,17.30
2023-05-02T19:26:51.694Z,17.10
2023-05-02T19:29:54.778Z,17.00
2023-05-02T19:32:56.785Z,16.78
2023-05-02T19:35:59.180Z,16.79
2023-05-02T19:39:01.423Z,16.81
2023-05-02T19:42:04.222Z,16.77
2023-05-02T19:45:06.749Z,16.84
2023-05-02T19:48:09.069Z,16.64
2023-05-02T19:51:11.126Z,16.51
2023-05-02T19:54:13.504Z,16.60
2023-05-02T19:57:17.772Z,16.57
2023-05-02T20:00:20.213Z,16.47
2023-05-02T20:03:25.516Z,16.17
2023-05-02T20:06:28.511Z,16.03
2023-05-02T20:09:30.922Z,15.98
2023-05-02T20:12:32.904Z,15.98
2023-05-02T20:15:35.422Z,15.91
2023-05-02T20:18:37.372Z,16.02
2023-05-02T20:21:40.340Z,15.91
2023-05-02T20:24:42.277Z,15.86
2023-05-02T20:27:44.550Z,15.91
2023-05-02T20:30:46.723Z,15.95
2023-05-02T20:33:49.120Z,15.81
2023-05-02T20:36:52.552Z,15.79
2023-05-02T20:39:55.305Z,15.78
2023-05-02T20:43:01.849Z,15.66
2023-05-02T20:46:11.962Z,15.68
2023-05-02T20:49:14.250Z,15.67
2023-05-02T20:52:16.528Z,15.66
2023-05-02T20:55:18.724Z,15.73
2023-05-02T20:58:24.194Z,15.66
2023-05-02T21:01:26.757Z,15.39
2023-05-02T21:04:29.188Z,15.29
2023-05-02T21:07:31.407Z,15.43
2023-05-02T21:10:36.523Z,15.40
2023-05-02T21:13:38.582Z,15.48
2023-05-02T21:16:40.874Z,15.12
2023-05-02T21:19:42.864Z,15.35
2023-05-02T21:22:45.152Z,15.49
2023-05-02T21:25:47.296Z,15.54
2023-05-02T21:28:49.695Z,15.28
2023-05-02T21:31:54.032Z,15.22
2023-05-02T21:34:57.207Z,15.00
2023-05-02T21:37:59.274Z,14.97
2023-05-02T21:41:03.008Z,14.98
2023-05-02T21:44:04.993Z,14.99
2023-05-02T21:47:07.308Z,14.90
2023-05-02T21:50:09.457Z,14.92
2023-05-02T21:53:12.304Z,14.71
2023-05-02T21:56:14.450Z,14.88
2023-05-02T21:59:16.696Z,14.89
2023-05-02T22:02:18.756Z,14.93
2023-05-02T22:05:21.629Z,14.94
2023-05-02T22:08:24.184Z,14.87
2023-05-02T22:11:28.279Z,14.79
2023-05-02T22:14:41.767Z,14.83
2023-05-02T22:17:46.520Z,14.83
2023-05-02T22:20:50.899Z,15.03
2023-05-02T22:23:53.268Z,14.87
2023-05-02T22:26:56.241Z,14.81
2023-05-02T22:29:58.620Z,14.81
2023-05-02T22:33:01.560Z,14.89
2023-05-02T22:36:04.073Z,14.79
2023-05-02T22:39:11.959Z,14.66
2023-05-02T22:42:14.244Z,14.67
2023-05-02T22:45:16.482Z,14.67
2023-05-02T22:48:18.825Z,14.65
2023-05-02T22:51:20.753Z,14.61
2023-05-02T22:54:23.017Z,14.62
2023-05-02T22:57:25.144Z,14.65
2023-05-02T23:00:27.380Z,14.69
2023-05-02T23:03:29.483Z,14.72
2023-05-02T23:06:31.869Z,14.73
2023-05-02T23:09:33.893Z,14.70
2023-05-02T23:12:36.154Z,14.74
2023-05-02T23:15:38.187Z,14.84
2023-05-02T23:18:40.657Z,15.01
2023-05-02T23:21:42.779Z,15.00
2023-05-02T23:24:48.351Z,15.07
2023-05-02T23:27:50.606Z,14.94
2023-05-02T23:30:53.628Z,14.96
2023-05-02T23:33:55.955Z,14.74
2023-05-02T23:36:58.307Z,14.73
2023-05-02T23:40:00.992Z,14.75
2023-05-02T23:43:03.668Z,14.74
2023-05-02T23:46:06.325Z,14.63
2023-05-02T23:49:08.727Z,14.66
2023-05-02T23:52:10.800Z,14.59
2023-05-02T23:55:13.037Z,14.65
2023-05-02T23:58:15.075Z,14.60
